Time;durP1;ratioP1;P1;durP2;ratioP2;P2;SDS_P1;SDS_P2;PMS_P1;PMS_P2;Temp;Humidity;BMP_temperature;BMP_pressure;BME280_temperature;BME280_humidity;BME280_pressure;Samples;Min_cycle;Max_cycle;Signal;HPM_P1;HPM_P2
2023/07/16 00:00:51;;;;;;;10.90;8.25;;;;;;;15.77;78.71;99551.94;5076154;28;20038;-54
2023/07/16 00:03:17;;;;;;;13.65;7.75;;;;;;;15.74;78.59;99550.41;5081415;28;20028;-55
2023/07/16 00:05:42;;;;;;;13.88;7.97;;;;;;;15.71;78.53;99544.53;5074068;28;20036;-58
2023/07/16 00:08:08;;;;;;;10.38;8.43;;;;;;;15.71;78.74;99541.81;5083009;28;20044;-52
2023/07/16 00:10:37;;;;;;;9.20;7.95;;;;;;;15.70;78.95;99543.66;5073228;28;20541;-57
2023/07/16 00:13:03;;;;;;;8.98;8.00;;;;;;;15.68;78.87;99563.75;5073232;28;20489;-49
2023/07/16 00:15:29;;;;;;;9.38;7.63;;;;;;;15.62;78.85;99552.56;5073324;28;20089;-53
2023/07/16 00:17:55;;;;;;;10.35;7.25;;;;;;;15.62;78.94;99543.66;5074793;28;20028;-56
2023/07/16 00:20:23;;;;;;;11.45;7.93;;;;;;;15.68;79.02;99550.25;5091237;28;20028;-53
2023/07/16 00:22:49;;;;;;;12.75;8.20;;;;;;;15.71;78.79;99552.63;5074799;28;20143;-55
2023/07/16 00:25:14;;;;;;;11.02;8.32;;;;;;;15.73;79.15;99553.28;5092734;28;20225;-55
2023/07/16 00:27:40;;;;;;;11.18;7.97;;;;;;;15.77;78.90;99549.25;5088646;28;20344;-53
2023/07/16 00:30:06;;;;;;;9.75;7.22;;;;;;;15.80;78.64;99551.63;5090700;28;20032;-53
2023/07/16 00:32:32;;;;;;;10.23;7.20;;;;;;;15.82;78.40;99560.38;5091926;28;20425;-55
2023/07/16 00:34:57;;;;;;;7.65;6.82;;;;;;;15.83;78.24;99556.69;5092676;28;20039;-51
2023/07/16 00:37:23;;;;;;;10.18;6.90;;;;;;;15.81;77.87;99545.22;5089378;28;20094;-52
2023/07/16 00:39:48;;;;;;;7.30;6.60;;;;;;;15.83;77.94;99551.28;5073284;28;20495;-59
2023/07/16 00:42:14;;;;;;;9.10;6.60;;;;;;;15.81;77.79;99558.69;5084995;28;20029;-54
2023/07/16 00:44:39;;;;;;;8.68;6.95;;;;;;;15.81;77.59;99558.69;5075999;28;20036;-53
2023/07/16 00:47:05;;;;;;;13.40;6.97;;;;;;;15.81;77.59;99555.16;5055117;28;20062;-55
2023/07/16 00:49:31;;;;;;;6.82;6.15;;;;;;;15.85;77.73;99559.22;5091020;28;20028;-52
2023/07/16 00:51:58;;;;;;;8.00;6.32;;;;;;;15.65;77.49;99529.81;5076056;28;20078;-53
2023/07/16 00:54:24;;;;;;;8.25;6.53;;;;;;;15.89;77.09;99563.31;5085113;28;20035;-56
2023/07/16 00:56:49;;;;;;;8.77;6.28;;;;;;;15.93;76.78;99565.53;5090187;28;20355;-56
2023/07/16 00:59:16;;;;;;;8.18;5.80;;;;;;;15.77;76.68;99541.16;5074718;28;20043;-56
2023/07/16 01:01:41;;;;;;;6.15;5.55;;;;;;;16.04;76.31;99571.63;5077612;28;20523;-52
2023/07/16 01:04:07;;;;;;;6.80;5.63;;;;;;;16.07;76.21;99569.44;5086590;28;20107;-53
2023/07/16 01:06:36;;;;;;;9.07;5.88;;;;;;;16.13;75.96;99565.19;5094280;28;20146;-53
2023/07/16 01:09:07;;;;;;;6.43;5.60;;;;;;;16.17;75.89;99571.13;5093206;28;20547;-52
2023/07/16 01:11:35;;;;;;;8.18;6.05;;;;;;;16.17;75.60;99566.59;5097009;28;20040;-53
2023/07/16 01:14:01;;;;;;;8.13;6.03;;;;;;;16.16;75.28;99564.91;5094914;28;20043;-51
2023/07/16 01:16:27;;;;;;;8.07;6.07;;;;;;;16.25;75.10;99568.44;5094183;28;20038;-53
2023/07/16 01:18:53;;;;;;;11.40;5.32;;;;;;;16.29;74.80;99575.22;5083083;28;20029;-54
2023/07/16 01:21:21;;;;;;;7.68;5.80;;;;;;;16.35;74.85;99579.06;5077525;28;20082;-56
2023/07/16 01:23:49;;;;;;;7.90;5.85;;;;;;;16.38;74.62;99577.91;5077119;28;20036;-51
2023/07/16 01:26:37;;;;;;;7.82;5.53;;;;;;;16.45;74.29;99587.03;5075275;28;20028;-55
2023/07/16 01:29:18;;;;;;;6.57;5.63;;;;;;;16.55;73.82;99581.44;5088247;28;20047;-53
2023/07/16 01:31:46;;;;;;;6.03;5.15;;;;;;;16.49;73.66;99581.13;5094357;28;20083;-54
2023/07/16 01:34:13;;;;;;;7.63;5.43;;;;;;;16.54;73.39;99585.16;5093188;28;20071;-52
2023/07/16 01:36:40;;;;;;;5.50;5.00;;;;;;;16.54;73.55;99585.16;5094752;28;20036;-55
2023/07/16 01:39:05;;;;;;;7.63;4.85;;;;;;;16.59;73.42;99585.50;5086573;28;20024;-50
2023/07/16 01:41:31;;;;;;;8.38;5.70;;;;;;;16.57;73.34;99574.88;5095105;28;20470;-52
2023/07/16 01:43:56;;;;;;;5.72;5.13;;;;;;;16.60;73.01;99573.69;5089825;28;20078;-52
2023/07/16 01:46:22;;;;;;;6.90;5.45;;;;;;;16.71;72.93;99577.91;5074975;28;20036;-54
2023/07/16 01:48:47;;;;;;;7.82;5.65;;;;;;;16.70;72.75;99581.63;5081078;28;20032;-57
2023/07/16 01:51:14;;;;;;;6.18;5.43;;;;;;;16.81;72.76;99597.50;5075041;28;20043;-54
2023/07/16 01:53:40;;;;;;;8.63;5.45;;;;;;;16.82;72.64;99591.09;5074995;28;20125;-54
2023/07/16 01:56:06;;;;;;;10.00;5.88;;;;;;;16.87;72.38;99585.13;5076396;28;20032;-53
2023/07/16 01:58:31;;;;;;;7.47;5.20;;;;;;;16.98;72.12;99592.06;5079710;28;20031;-55
2023/07/16 02:00:57;;;;;;;7.13;5.18;;;;;;;17.02;71.99;99585.34;5082439;28;20205;-53
2023/07/16 02:03:23;;;;;;;9.18;5.70;;;;;;;17.15;71.92;99590.22;5077576;28;20448;-53
2023/07/16 02:05:48;;;;;;;9.20;6.10;;;;;;;17.23;71.44;99592.91;5075488;28;20055;-55
2023/07/16 02:08:14;;;;;;;7.38;5.80;;;;;;;17.26;71.38;99578.19;5075758;28;20457;-57
2023/07/16 02:10:39;;;;;;;8.32;6.05;;;;;;;17.30;71.25;99588.47;5084458;28;20059;-51
2023/07/16 02:13:05;;;;;;;7.07;5.90;;;;;;;17.29;70.98;99584.06;5093584;28;20824;-55
2023/07/16 02:15:31;;;;;;;6.25;5.25;;;;;;;17.34;71.12;99594.38;5077929;28;20425;-54
2023/07/16 02:17:57;;;;;;;6.07;5.45;;;;;;;17.17;71.11;99569.25;5075259;28;20043;-50
2023/07/16 02:20:23;;;;;;;7.38;5.70;;;;;;;17.38;71.03;99603.00;5075903;28;20039;-53
2023/07/16 02:22:48;;;;;;;6.50;5.72;;;;;;;17.43;70.99;99603.31;5076620;28;20032;-55
2023/07/16 02:25:14;;;;;;;9.20;6.18;;;;;;;17.31;70.71;99556.84;5075383;28;20371;-53
2023/07/16 02:27:39;;;;;;;6.22;5.47;;;;;;;17.63;70.37;99603.75;5087369;28;20042;-55
2023/07/16 02:30:06;;;;;;;9.38;5.93;;;;;;;17.67;70.02;99596.13;5075427;28;20090;-54
2023/07/16 02:32:33;;;;;;;7.90;5.70;;;;;;;17.73;70.06;99603.53;5075211;28;20060;-55
2023/07/16 02:35:00;;;;;;;10.82;5.93;;;;;;;17.75;69.71;99594.25;5076596;28;20978;-54
2023/07/16 02:37:25;;;;;;;7.60;5.93;;;;;;;17.87;69.49;99597.41;5077414;28;20025;-53
2023/07/16 02:39:51;;;;;;;10.57;6.45;;;;;;;17.94;68.88;99600.22;5091272;28;20028;-51
2023/07/16 02:42:16;;;;;;;7.05;5.75;;;;;;;18.03;68.70;99604.63;5060840;28;20031;-53
2023/07/16 02:44:44;;;;;;;7.75;6.30;;;;;;;18.16;68.54;99608.59;5074554;28;20441;-56
2023/07/16 02:47:11;;;;;;;14.65;6.28;;;;;;;18.10;68.28;99599.34;5081271;28;20490;-56
2023/07/16 02:49:37;;;;;;;9.20;6.05;;;;;;;18.26;68.35;99611.06;5080364;28;20044;-55
2023/07/16 02:52:03;;;;;;;10.30;6.18;;;;;;;18.34;67.76;99608.31;5080391;28;20036;-51
2023/07/16 02:54:29;;;;;;;8.88;5.95;;;;;;;18.21;67.39;99574.53;5094653;28;20349;-53
2023/07/16 02:56:54;;;;;;;6.82;5.30;;;;;;;18.37;67.42;99602.53;5091116;28;20028;-55
2023/07/16 02:59:20;;;;;;;7.82;5.80;;;;;;;18.42;67.58;99613.69;5090977;28;20081;-53
2023/07/16 03:01:45;;;;;;;7.47;5.35;;;;;;;18.43;67.56;99623.50;5091323;28;20032;-57
2023/07/16 03:04:11;;;;;;;6.82;5.63;;;;;;;18.32;67.63;99608.50;5093217;28;20035;-55
2023/07/16 03:06:37;;;;;;;7.07;5.47;;;;;;;18.37;67.75;99626.94;5092647;28;20417;-54
2023/07/16 03:09:03;;;;;;;6.32;5.43;;;;;;;18.39;67.61;99635.72;5073869;28;20217;-52
2023/07/16 03:11:29;;;;;;;6.25;5.60;;;;;;;18.48;67.49;99629.22;5073602;28;20043;-54
2023/07/16 03:13:54;;;;;;;7.93;5.50;;;;;;;18.50;67.04;99620.91;5073479;28;20133;-54
2023/07/16 03:16:20;;;;;;;7.47;5.60;;;;;;;18.52;66.85;99645.97;5074147;28;20036;-56
2023/07/16 03:18:45;;;;;;;6.65;5.68;;;;;;;18.49;66.87;99633.59;5073750;28;20402;-52
2023/07/16 03:21:12;;;;;;;6.70;5.97;;;;;;;18.49;67.15;99635.50;5072842;28;20032;-52
2023/07/16 03:23:37;;;;;;;8.35;5.60;;;;;;;18.46;66.82;99628.56;5088379;28;20035;-53
2023/07/16 03:26:03;;;;;;;6.97;5.30;;;;;;;18.51;66.73;99631.56;5073279;28;20032;-53
2023/07/16 03:28:28;;;;;;;9.10;5.55;;;;;;;18.54;66.93;99634.94;5076158;28;20020;-50
2023/07/16 03:30:54;;;;;;;9.73;5.70;;;;;;;18.53;66.72;99631.38;5074296;28;20465;-52
2023/07/16 03:33:20;;;;;;;9.48;5.30;;;;;;;18.60;66.90;99636.94;5073164;28;20111;-50
2023/07/16 03:35:47;;;;;;;8.50;5.15;;;;;;;18.65;66.25;99629.09;5084264;28;20498;-52
2023/07/16 03:38:13;;;;;;;8.73;5.40;;;;;;;18.55;66.34;99612.22;5082646;28;20033;-57
2023/07/16 03:40:40;;;;;;;6.53;5.07;;;;;;;18.71;66.41;99644.63;5074169;28;20409;-56
2023/07/16 03:43:05;;;;;;;8.55;5.88;;;;;;;18.70;66.16;99639.41;5077169;28;20031;-59
2023/07/16 03:45:31;;;;;;;8.55;5.47;;;;;;;18.76;66.25;99644.94;5093465;28;20024;-55
2023/07/16 03:47:57;;;;;;;5.93;5.20;;;;;;;18.81;65.90;99644.38;5091443;28;20043;-54
2023/07/16 03:50:22;;;;;;;6.13;5.13;;;;;;;18.94;65.57;99638.34;5082075;28;20077;-54
2023/07/16 03:52:48;;;;;;;9.27;5.60;;;;;;;19.04;64.92;99641.66;5071977;28;20361;-56
2023/07/16 03:55:13;;;;;;;7.72;5.43;;;;;;;18.97;65.07;99616.28;5077633;28;20028;-50
2023/07/16 03:57:40;;;;;;;7.38;5.60;;;;;;;19.34;64.25;99643.59;5074057;28;20125;-54
2023/07/16 04:00:08;;;;;;;6.47;5.72;;;;;;;19.56;63.79;99639.13;5072898;28;20098;-52
2023/07/16 04:02:34;;;;;;;5.85;5.18;;;;;;;19.73;62.84;99647.91;5074410;28;20528;-50
2023/07/16 04:05:00;;;;;;;6.82;5.20;;;;;;;19.88;62.66;99649.75;5084108;28;20042;-55
2023/07/16 04:07:25;;;;;;;5.97;5.35;;;;;;;20.05;62.23;99650.44;5072858;28;20294;-54
2023/07/16 04:09:51;;;;;;;6.55;5.63;;;;;;;20.16;61.56;99647.22;5072586;28;20037;-54
2023/07/16 04:12:17;;;;;;;10.18;5.30;;;;;;;20.06;61.58;99622.22;5087411;28;20059;-53
2023/07/16 04:14:42;;;;;;;7.07;5.60;;;;;;;20.18;61.15;99649.75;5092484;28;20092;-49
2023/07/16 04:17:08;;;;;;;7.55;5.57;;;;;;;20.17;61.37;99650.78;5087881;28;20024;-56
2023/07/16 04:19:34;;;;;;;6.40;5.30;;;;;;;20.07;61.39;99653.81;5072283;28;20428;-51
2023/07/16 04:21:59;;;;;;;6.80;5.25;;;;;;;19.84;61.65;99630.28;5072766;28;20036;-53
2023/07/16 04:24:26;;;;;;;6.28;5.35;;;;;;;19.92;62.01;99646.50;5072410;28;20407;-54
2023/07/16 04:26:53;;;;;;;7.75;5.57;;;;;;;19.70;62.21;99637.41;5073458;28;20028;-55
2023/07/16 04:29:19;;;;;;;8.90;6.07;;;;;;;19.87;62.33;99656.22;5073375;28;20040;-54
2023/07/16 04:31:44;;;;;;;6.40;5.63;;;;;;;19.85;62.35;99656.41;5073796;28;20452;-50
2023/07/16 04:34:10;;;;;;;9.20;5.47;;;;;;;19.89;62.25;99667.72;5072243;28;20028;-52
2023/07/16 04:36:35;;;;;;;7.78;5.43;;;;;;;19.88;62.10;99666.06;5070897;28;20954;-51
2023/07/16 04:39:01;;;;;;;6.57;5.88;;;;;;;19.84;62.64;99665.59;5087618;28;20041;-54
2023/07/16 04:41:27;;;;;;;6.55;5.95;;;;;;;19.73;62.18;99666.91;5090838;28;20059;-57
2023/07/16 04:43:52;;;;;;;7.90;5.65;;;;;;;19.63;62.69;99653.63;5090618;28;20092;-54
2023/07/16 04:46:18;;;;;;;7.18;5.47;;;;;;;19.69;63.04;99667.47;5091787;28;20047;-55
2023/07/16 04:48:43;;;;;;;8.18;6.10;;;;;;;19.64;63.28;99665.31;5077699;28;20028;-54
2023/07/16 04:51:09;;;;;;;8.20;6.00;;;;;;;19.65;62.99;99662.41;5071660;28;20032;-54
2023/07/16 04:53:34;;;;;;;9.77;6.00;;;;;;;19.74;62.52;99662.31;5075273;28;20040;-54
2023/07/16 04:56:00;;;;;;;7.38;6.57;;;;;;;19.79;62.79;99662.63;5070397;28;20115;-52
2023/07/16 04:58:25;;;;;;;6.90;6.15;;;;;;;19.78;62.41;99663.66;5075651;28;20431;-56
2023/07/16 05:00:51;;;;;;;9.77;6.15;;;;;;;19.86;62.06;99663.53;5071578;28;20036;-56
2023/07/16 05:03:16;;;;;;;11.10;6.70;;;;;;;19.91;62.40;99663.00;5073256;28;20464;-52
2023/07/16 05:05:42;;;;;;;10.30;6.82;;;;;;;19.88;62.15;99666.91;5072189;28;20028;-56
2023/07/16 05:08:08;;;;;;;10.65;7.40;;;;;;;19.82;62.45;99666.81;5069896;28;20075;-51
2023/07/16 05:10:33;;;;;;;7.28;6.50;;;;;;;19.89;62.44;99675.88;5072865;28;20424;-55
2023/07/16 05:12:59;;;;;;;7.22;6.53;;;;;;;19.89;62.50;99657.72;5073462;28;20039;-53
2023/07/16 05:15:25;;;;;;;8.38;6.18;;;;;;;19.96;61.66;99660.56;5071458;28;20094;-51
2023/07/16 05:17:50;;;;;;;6.50;5.90;;;;;;;19.98;61.83;99660.34;5068471;28;20036;-53
2023/07/16 05:20:16;;;;;;;7.07;6.38;;;;;;;20.02;61.92;99667.13;5071883;28;20043;-53
2023/07/16 05:22:41;;;;;;;8.60;6.05;;;;;;;20.08;61.49;99666.34;5072138;28;20046;-54
2023/07/16 05:25:07;;;;;;;7.25;6.63;;;;;;;20.16;61.61;99673.56;5073166;28;20035;-53
2023/07/16 05:27:33;;;;;;;8.98;6.50;;;;;;;20.16;61.63;99668.94;5070887;28;20460;-52
2023/07/16 05:29:58;;;;;;;7.15;6.55;;;;;;;20.09;61.54;99673.47;5070576;28;20035;-51
2023/07/16 05:32:24;;;;;;;7.85;6.78;;;;;;;20.13;61.68;99668.47;5070802;28;20028;-60
2023/07/16 05:34:49;;;;;;;8.52;6.47;;;;;;;20.26;61.54;99667.81;5071348;28;20130;-57
2023/07/16 05:37:15;;;;;;;9.45;6.75;;;;;;;20.22;60.93;99641.00;5074107;28;20028;-53
2023/07/16 05:39:41;;;;;;;8.27;6.78;;;;;;;20.65;60.35;99678.28;5070849;28;20029;-50
2023/07/16 05:42:06;;;;;;;8.30;6.70;;;;;;;20.87;59.49;99682.91;5069841;28;20036;-54
2023/07/16 05:44:32;;;;;;;9.73;6.68;;;;;;;20.97;59.19;99669.78;5071513;28;20522;-58
2023/07/16 05:46:57;;;;;;;9.35;6.57;;;;;;;21.22;58.75;99674.84;5075011;28;20033;-52
2023/07/16 05:49:25;;;;;;;7.00;6.28;;;;;;;21.43;57.71;99673.09;5074678;28;20031;-53
2023/07/16 05:51:51;;;;;;;9.18;6.63;;;;;;;21.74;57.15;99690.94;5071670;28;20459;-58
2023/07/16 05:54:16;;;;;;;7.15;6.45;;;;;;;21.92;56.11;99671.31;5071342;28;20029;-60
2023/07/16 05:56:42;;;;;;;7.50;6.65;;;;;;;21.96;56.72;99677.22;5074634;28;20486;-58
2023/07/16 05:59:07;;;;;;;8.27;6.57;;;;;;;21.65;56.37;99622.13;5073918;28;20043;-60
2023/07/16 06:01:33;;;;;;;6.70;6.00;;;;;;;22.12;55.66;99685.03;5073676;28;20086;-59
2023/07/16 06:03:58;;;;;;;7.82;6.30;;;;;;;22.30;55.33;99680.91;5074951;28;20088;-59
2023/07/16 06:06:24;;;;;;;11.23;6.30;;;;;;;22.62;54.80;99673.88;5073746;28;20115;-58
2023/07/16 06:08:50;;;;;;;8.27;6.00;;;;;;;22.91;53.78;99674.56;5074276;28;20113;-62
2023/07/16 06:11:15;;;;;;;7.28;6.57;;;;;;;22.83;53.49;99652.06;5074632;28;20036;-57
2023/07/16 06:13:41;;;;;;;7.30;6.10;;;;;;;23.12;53.22;99671.81;5074684;28;20036;-57
2023/07/16 06:16:06;;;;;;;7.13;6.32;;;;;;;23.39;52.69;99682.75;5074116;28;20036;-60
2023/07/16 06:18:32;;;;;;;6.32;5.72;;;;;;;23.81;51.61;99683.31;5074807;28;20021;-59
2023/07/16 06:20:57;;;;;;;7.18;6.07;;;;;;;23.99;50.79;99679.06;5074431;28;20428;-59
2023/07/16 06:23:22;;;;;;;9.25;5.82;;;;;;;24.10;50.13;99685.78;5073285;28;20052;-56
2023/07/16 06:25:49;;;;;;;5.68;5.18;;;;;;;24.07;50.39;99676.09;5074206;28;20369;-61
2023/07/16 06:28:15;;;;;;;6.30;5.70;;;;;;;24.01;50.18;99694.22;5074821;28;20054;-57
2023/07/16 06:30:41;;;;;;;6.30;5.70;;;;;;;23.71;51.54;99699.31;5075139;28;20753;-59
2023/07/16 06:33:06;;;;;;;6.90;6.30;;;;;;;23.27;52.02;99682.56;5075115;28;20452;-61
2023/07/16 06:35:33;;;;;;;9.18;6.47;;;;;;;23.01;53.19;99678.75;5056905;28;20035;-59
2023/07/16 06:37:58;;;;;;;6.75;6.13;;;;;;;23.02;53.20;99689.47;5074330;28;20029;-61
2023/07/16 06:40:24;;;;;;;8.10;6.70;;;;;;;23.18;53.22;99695.56;5073881;28;20399;-60
2023/07/16 06:42:50;;;;;;;9.45;6.85;;;;;;;23.22;52.22;99647.66;5073704;28;20463;-60
2023/07/16 06:45:17;;;;;;;11.63;6.55;;;;;;;23.80;51.80;99698.03;5074264;28;20111;-61
2023/07/16 06:47:43;;;;;;;8.38;5.88;;;;;;;24.32;50.59;99683.56;5075331;28;20118;-55
2023/07/16 06:50:09;;;;;;;7.20;6.25;;;;;;;25.05;48.53;99679.53;5075070;28;20033;-58
2023/07/16 06:52:34;;;;;;;6.95;5.88;;;;;;;25.53;47.44;99693.69;5073648;28;20048;-57
2023/07/16 06:55:00;;;;;;;7.40;6.32;;;;;;;25.39;47.13;99687.47;5072740;28;20020;-58
2023/07/16 06:57:26;;;;;;;7.72;6.30;;;;;;;24.68;48.67;99687.56;5074785;28;20044;-57
2023/07/16 06:59:52;;;;;;;8.13;6.22;;;;;;;24.41;49.81;99697.81;5073795;28;20123;-64
2023/07/16 07:02:18;;;;;;;6.25;5.47;;;;;;;24.35;50.43;99699.53;5073674;28;20033;-56
2023/07/16 07:04:44;;;;;;;7.63;6.35;;;;;;;24.33;50.02;99696.19;5074453;28;20032;-56
2023/07/16 07:07:10;;;;;;;7.28;6.28;;;;;;;24.06;50.63;99679.88;5075147;28;20161;-54
2023/07/16 07:09:35;;;;;;;8.15;6.22;;;;;;;23.69;50.98;99674.09;5092073;28;20036;-59
2023/07/16 07:12:01;;;;;;;7.15;5.20;;;;;;;23.55;51.50;99701.44;5090413;28;20028;-58
2023/07/16 07:14:26;;;;;;;6.03;5.53;;;;;;;23.26;51.84;99676.25;5093334;28;20028;-60
2023/07/16 07:16:52;;;;;;;6.70;5.63;;;;;;;23.12;52.54;99677.28;5094303;28;20110;-59
2023/07/16 07:19:17;;;;;;;7.28;5.90;;;;;;;23.22;52.50;99703.13;5090743;28;20103;-57
2023/07/16 07:21:43;;;;;;;8.35;6.15;;;;;;;23.50;51.99;99703.97;5092091;28;20360;-56
2023/07/16 07:24:08;;;;;;;6.00;5.28;;;;;;;23.88;51.08;99706.03;5091551;28;20035;-53
2023/07/16 07:26:34;;;;;;;6.10;5.50;;;;;;;23.91;50.30;99702.00;5091384;28;20039;-56
2023/07/16 07:28:59;;;;;;;8.25;5.60;;;;;;;23.93;50.57;99708.09;5093470;28;20043;-61
2023/07/16 07:31:25;;;;;;;6.38;5.20;;;;;;;24.43;49.11;99695.72;5083895;28;20031;-58
2023/07/16 07:33:51;;;;;;;7.78;5.22;;;;;;;25.46;46.99;99680.03;5073035;28;20116;-54
2023/07/16 07:36:16;;;;;;;5.80;4.63;;;;;;;27.87;41.89;99693.31;5071992;28;20039;-56
2023/07/16 07:38:42;;;;;;;6.82;4.80;;;;;;;28.83;38.61;99670.97;5072367;28;20025;-55
2023/07/16 07:41:07;;;;;;;5.45;4.95;;;;;;;28.97;39.29;99697.13;5055249;28;20040;-57
2023/07/16 07:43:33;;;;;;;6.95;4.57;;;;;;;28.59;39.08;99693.97;5075322;28;20032;-53
2023/07/16 07:45:58;;;;;;;5.80;4.55;;;;;;;27.89;40.44;99693.91;5091213;28;20064;-55
2023/07/16 07:48:24;;;;;;;8.93;5.25;;;;;;;26.69;42.35;99694.84;5093452;28;20051;-55
2023/07/16 07:50:50;;;;;;;6.60;4.85;;;;;;;25.90;44.66;99685.50;5093221;28;20427;-55
2023/07/16 07:53:17;;;;;;;5.95;5.03;;;;;;;26.10;44.67;99692.66;5091636;28;20031;-56
2023/07/16 07:55:44;;;;;;;5.53;4.38;;;;;;;27.02;42.59;99688.03;5090925;28;20035;-53
2023/07/16 07:58:09;;;;;;;5.30;4.60;;;;;;;27.67;41.61;99698.34;5090919;28;20486;-56
2023/07/16 08:00:35;;;;;;;6.15;4.68;;;;;;;27.76;41.22;99702.44;5092576;28;20059;-50
2023/07/16 08:03:01;;;;;;;6.47;4.35;;;;;;;27.65;40.74;99699.44;5077208;28;20028;-56
2023/07/16 08:05:27;;;;;;;6.70;4.68;;;;;;;27.64;40.52;99692.25;5072588;28;20029;-60
2023/07/16 08:07:53;;;;;;;6.50;4.25;;;;;;;27.52;40.79;99691.44;5071733;28;20052;-58
2023/07/16 08:10:19;;;;;;;5.57;4.40;;;;;;;27.10;41.65;99697.81;5072138;28;20067;-58
2023/07/16 08:12:45;;;;;;;7.05;4.40;;;;;;;26.66;42.73;99692.56;5072500;28;20872;-57
2023/07/16 08:15:14;;;;;;;5.82;4.43;;;;;;;26.10;43.76;99692.66;5072745;28;20028;-58
2023/07/16 08:17:44;;;;;;;6.95;4.70;;;;;;;25.82;44.47;99688.56;5072496;28;20040;-58
2023/07/16 08:20:11;;;;;;;4.57;4.18;;;;;;;25.70;44.78;99698.59;5072896;28;20126;-49
2023/07/16 08:22:37;;;;;;;5.50;4.63;;;;;;;25.63;45.66;99693.16;5072428;28;20085;-58
2023/07/16 08:25:03;;;;;;;5.00;4.50;;;;;;;25.55;44.92;99691.56;5072406;28;20021;-59
2023/07/16 08:27:30;;;;;;;5.70;4.05;;;;;;;25.54;45.00;99698.09;5071786;28;20068;-59
2023/07/16 08:29:56;;;;;;;5.82;4.28;;;;;;;25.76;44.83;99697.66;5072181;28;20040;-56
2023/07/16 08:32:22;;;;;;;5.10;4.43;;;;;;;25.93;44.53;99686.94;5072883;28;20028;-57
2023/07/16 08:34:47;;;;;;;5.78;4.57;;;;;;;26.24;43.93;99674.16;5072953;28;20472;-58
2023/07/16 08:37:13;;;;;;;6.25;4.32;;;;;;;26.68;43.28;99692.34;5072226;28;20036;-58
2023/07/16 08:39:39;;;;;;;6.78;4.60;;;;;;;26.95;42.19;99681.78;5071890;28;20032;-57
2023/07/16 08:42:05;;;;;;;4.63;3.92;;;;;;;27.27;41.70;99681.50;5071840;28;20486;-58
2023/07/16 08:44:31;;;;;;;6.57;4.70;;;;;;;27.26;41.60;99692.72;5071102;28;20554;-61
2023/07/16 08:46:57;;;;;;;6.75;4.70;;;;;;;26.97;42.19;99689.81;5071161;28;20054;-59
2023/07/16 08:49:23;;;;;;;6.50;4.78;;;;;;;26.86;42.12;99683.22;5071322;28;20039;-60
2023/07/16 08:51:49;;;;;;;4.85;4.35;;;;;;;26.77;42.55;99672.56;5071120;28;20052;-59
2023/07/16 08:54:17;;;;;;;6.55;4.65;;;;;;;26.85;42.26;99670.56;5071624;28;20607;-59
2023/07/16 08:56:47;;;;;;;6.78;4.53;;;;;;;26.83;42.95;99675.41;5077865;28;20032;-59
2023/07/16 08:59:17;;;;;;;4.85;4.35;;;;;;;26.73;42.75;99663.09;5089658;28;20024;-59
2023/07/16 09:01:43;;;;;;;6.70;4.40;;;;;;;26.78;42.57;99667.88;5090228;28;20028;-59
2023/07/16 09:04:08;;;;;;;8.25;7.10;;;;;;;26.51;43.21;99666.34;5089394;28;20031;-59
2023/07/16 09:06:34;;;;;;;4.55;3.97;;;;;;;25.99;44.16;99665.97;5089806;28;20509;-57
2023/07/16 09:08:59;;;;;;;4.68;4.28;;;;;;;25.69;45.07;99673.09;5090460;28;20062;-59
2023/07/16 09:11:25;;;;;;;6.18;4.25;;;;;;;25.32;45.59;99673.00;5090518;28;20089;-58
2023/07/16 09:13:50;;;;;;;4.90;4.47;;;;;;;25.01;46.39;99678.31;5090975;28;20255;-59
2023/07/16 09:16:20;;;;;;;6.05;5.43;;;;;;;24.75;47.09;99682.09;5071408;28;20151;-60
2023/07/16 09:18:46;;;;;;;7.03;4.53;;;;;;;24.36;47.32;99690.28;5071601;28;20160;-61
2023/07/16 09:21:12;;;;;;;5.47;4.20;;;;;;;24.22;48.24;99689.50;5074511;28;20483;-59
2023/07/16 09:23:38;;;;;;;6.75;4.50;;;;;;;24.30;48.43;99670.13;5074798;28;20032;-59
2023/07/16 09:26:03;;;;;;;4.28;3.88;;;;;;;24.23;47.42;99653.72;5075549;28;20032;-59
2023/07/16 09:28:33;;;;;;;6.20;3.80;;;;;;;24.61;46.87;99681.31;5074958;28;20464;-59
2023/07/16 09:31:06;;;;;;;5.15;3.63;;;;;;;24.80;47.11;99683.09;5077511;28;20027;-60
2023/07/16 09:33:32;;;;;;;6.07;4.30;;;;;;;24.72;46.19;99672.38;5075190;28;20356;-57
2023/07/16 09:35:57;;;;;;;4.35;3.70;;;;;;;24.64;46.48;99648.84;5075551;28;20490;-59
2023/07/16 09:38:26;;;;;;;5.68;3.88;;;;;;;24.96;46.23;99688.25;5074919;28;20181;-60
2023/07/16 09:40:52;;;;;;;5.38;4.03;;;;;;;25.10;45.98;99670.66;5074308;28;20336;-57
2023/07/16 09:43:18;;;;;;;4.95;3.90;;;;;;;25.17;45.03;99657.72;5073644;28;20456;-57
2023/07/16 09:45:43;;;;;;;4.75;3.60;;;;;;;25.32;44.88;99673.84;5088211;28;20471;-59
2023/07/16 09:48:09;;;;;;;4.78;3.60;;;;;;;25.30;44.46;99673.22;5093716;28;20036;-58
2023/07/16 09:50:36;;;;;;;5.10;3.60;;;;;;;25.64;44.08;99684.72;5091826;28;20039;-59
2023/07/16 09:53:04;;;;;;;3.80;3.40;;;;;;;25.90;42.72;99681.91;5094127;28;20028;-60
2023/07/16 09:55:33;;;;;;;4.43;3.20;;;;;;;26.29;42.36;99684.44;5093554;28;20080;-60
2023/07/16 09:58:01;;;;;;;4.22;3.47;;;;;;;26.54;41.96;99680.72;5095603;28;20039;-58
2023/07/16 10:00:27;;;;;;;3.97;3.08;;;;;;;26.64;41.14;99678.22;5094503;28;20092;-57
2023/07/16 10:02:54;;;;;;;7.53;5.57;;;;;;;26.34;40.93;99670.84;5095061;28;20440;-59
2023/07/16 10:05:27;;;;;;;4.78;3.80;;;;;;;26.12;41.55;99665.81;5095044;28;20111;-58
2023/07/16 10:07:58;;;;;;;5.13;4.00;;;;;;;25.84;42.33;99678.19;5093543;28;20062;-59
2023/07/16 10:10:40;;;;;;;4.97;3.42;;;;;;;25.84;41.34;99683.69;5095725;28;20062;-59
2023/07/16 10:13:08;;;;;;;4.28;3.35;;;;;;;25.86;41.13;99664.22;5094990;28;20089;-58
2023/07/16 10:15:33;;;;;;;3.53;3.22;;;;;;;26.12;40.85;99679.53;5093260;28;20059;-57
2023/07/16 10:17:59;;;;;;;5.43;3.30;;;;;;;26.43;39.34;99674.94;5093298;28;20475;-59
2023/07/16 10:20:36;;;;;;;3.58;3.28;;;;;;;26.68;39.18;99673.13;5095074;28;20036;-61
2023/07/16 10:23:15;;;;;;;5.60;3.33;;;;;;;26.76;39.97;99673.59;5095200;28;20415;-60
2023/07/16 10:25:58;;;;;;;3.63;3.33;;;;;;;26.71;40.18;99643.25;5094968;28;20024;-59
2023/07/16 10:28:24;;;;;;;4.78;3.40;;;;;;;26.68;40.20;99673.13;5093675;28;20081;-61
2023/07/16 10:30:50;;;;;;;7.07;3.35;;;;;;;26.64;39.69;99675.50;5074290;28;20107;-58
2023/07/16 10:33:15;;;;;;;6.35;3.45;;;;;;;26.56;40.22;99667.59;5073063;28;20140;-59
2023/07/16 10:35:42;;;;;;;3.63;3.30;;;;;;;26.55;40.30;99671.41;5075413;28;20521;-56
2023/07/16 10:38:08;;;;;;;3.92;2.92;;;;;;;26.63;39.75;99688.38;5075088;28;20024;-58
2023/07/16 10:40:42;;;;;;;6.43;3.20;;;;;;;26.55;38.76;99676.91;5073814;28;20452;-60
2023/07/16 10:43:08;;;;;;;4.05;2.97;;;;;;;26.13;39.43;99675.72;5074185;28;20361;-56
2023/07/16 10:45:34;;;;;;;2.70;2.50;;;;;;;25.91;40.39;99673.47;5074360;28;20024;-60
2023/07/16 10:47:59;;;;;;;5.65;3.08;;;;;;;25.86;40.08;99670.56;5085748;28;20131;-59
2023/07/16 10:50:25;;;;;;;3.20;2.90;;;;;;;25.93;39.73;99665.00;5094753;28;20032;-58
2023/07/16 10:52:56;;;;;;;3.53;2.90;;;;;;;26.14;39.55;99671.06;5090603;28;20114;-60
2023/07/16 10:55:22;;;;;;;3.80;3.22;;;;;;;26.22;39.86;99663.38;5094349;28;20440;-60
2023/07/16 10:57:49;;;;;;;3.35;3.05;;;;;;;26.32;39.23;99679.31;5094904;28;20035;-60
2023/07/16 11:00:16;;;;;;;5.38;3.10;;;;;;;26.51;38.89;99674.59;5094585;28;20020;-59
2023/07/16 11:02:43;;;;;;;6.15;2.85;;;;;;;26.77;38.73;99669.81;5093936;28;20031;-57
2023/07/16 11:05:14;;;;;;;4.70;3.05;;;;;;;27.07;38.12;99668.94;5094112;28;20038;-59
2023/07/16 11:07:49;;;;;;;3.97;3.03;;;;;;;27.29;37.93;99665.59;5089925;28;20055;-59
2023/07/16 11:10:16;;;;;;;4.65;3.30;;;;;;;27.05;36.89;99664.72;5078939;28;20436;-60
2023/07/16 11:12:42;;;;;;;3.70;3.40;;;;;;;26.93;37.36;99665.56;5093934;28;20024;-62
2023/07/16 11:15:08;;;;;;;3.45;3.08;;;;;;;27.05;37.60;99668.34;5093672;28;20028;-59
2023/07/16 11:17:37;;;;;;;3.63;3.33;;;;;;;27.30;37.40;99670.03;5094106;28;20028;-60
2023/07/16 11:20:06;;;;;;;3.05;2.80;;;;;;;27.25;36.82;99658.91;5094186;28;20117;-62
2023/07/16 11:22:32;;;;;;;4.35;3.30;;;;;;;26.91;37.26;99658.63;5092952;28;20352;-58
2023/07/16 11:24:57;;;;;;;6.35;3.05;;;;;;;26.71;38.04;99654.25;5088249;28;20036;-62
2023/07/16 11:27:26;;;;;;;6.45;3.30;;;;;;;26.60;38.38;99658.63;5073504;28;20075;-62